Aérodrome :
LOGIN :

S'inscrire | Disclaimer

   EN    FR    IT 

 










Légende :    VFR   VFR Marginal   IFR   IFR Intensif   IFR Très Intensif
Visi : 
Plafond : 
>= 8 km
>= 3000ft
5 à 8 km
1000 à 3000 ft
1500m à 5 km
500 à 1000 ft
800 à 1500m
200 à 500 ft
< 800m
< 200 ft
Symboles :   Orages  Brouillard  Fortes neiges  Fortes précipitations  Vent > 20 kt
SIGMETs :   Divers  Orages  Givrage  Turbulence  Onde Orograph.  Cendres Volcan.






- Altitude de l'aérodrome : 1090 ft
- Code IATA : CFE


LFLC - Clermont-Ferrand Auvergne

DERNIER METAR :
  • 190300Z AUTO VRB03KT 9999 ///CB 19/18 Q1012 TEMPO 4000 TSRA BECMG NSC

METARs EXPIRÉS :
  • 190230Z AUTO VRB02KT 9999 ///CB 19/18 Q1012 BECMG NSC
  • 190200Z AUTO 36005KT 9999 -RA VCTS ///CB 19/17 Q1012 BECMG NSW NSC
  • 190130Z AUTO VRB02KT 9999 ///CB 19/17 Q1012 BECMG NSC
  • 190100Z AUTO 19005KT 9999 ///TCU 19/17 Q1012 BECMG NSC
  • 190030Z AUTO 13006KT CAVOK 19/17 Q1012 NOSIG
  • 190000Z AUTO VRB03KT CAVOK 19/17 Q1012 NOSIG
  • 182330Z AUTO 20004KT CAVOK 19/17 Q1013 NOSIG
  • 182300Z AUTO 24003KT CAVOK 19/17 Q1013 TEMPO SHRA SCT070CB BKN080
  • 182230Z AUTO 28004KT CAVOK 19/17 Q1013 TEMPO SHRA SCT070CB BKN080

TAF AMD TAF LFLC
Valide du 19 à 02h jusqu'au 20 à 00h UTC


190228Z 1902/1924 VRB04KT CAVOK
PROB40
TEMPO 1902/1904 4000 TSRA SCT060CB BKN090
TEMPO 1912/1922 36010KT FEW045TCU
PROB40
TEMPO 1913/1922 SHRA SCT045TCU
PROB30
TEMPO 1914/1919 VRB15G30KT 2000 TSRA BKN040CB
ATIS : +33 4 73 62 74 38



MET'MAP, la Météo Aéronautique d'un coup d'oeil ! - Copyright ORBIFLY Décembre 2007 - Disclaimer

ORBIFLY MET'MAP TEAM :

Programmation & Développement : Alexandra Zaïnal
Sur une idée originale de : Baudouin d'Aumeries
Soutien technique & logistique : Manuel Goepfert
Assistance : Marc-Olivier Méhu




SOURCES & CREDITS :

   NOAA